Peckville, Pennsylvania
Current Conditions -  °F | °C
As of 12:54 AM on Tuesday 27 Jan 2015 (Local Time) from KAVP Reporting Station
Broken Clouds Broken Clouds  
Wind Chill: 23°   Ceiling: 7000
Heat Index: 23°   Visibility: 10mi
Dew Point: 14°   Wind: 3mph
Humidity: 68%   Direction: 80°E
Pressure: 29.73"   Gusts: NA
Location:  41.48°N, 75.57°W
Report Text: KAVP 270554Z AUTO 08003KT 10SM SCT025 BKN070 M05/M10 A2973 RMK AO2 SLP078 T10501100 11044 21056 56012
Loading
Personal Weather Stations






























Interactive Weather Map New forecast layout! Learn more

10-Day Weather Forecast

Advertisements
Track Severe Weather on mobile